Time;durP1;ratioP1;P1;durP2;ratioP2;P2;SDS_P1;SDS_P2;PMS_P1;PMS_P2;Temp;Humidity;BMP_temperature;BMP_pressure;BME280_temperature;BME280_humidity;BME280_pressure;Samples;Min_cycle;Max_cycle;Signal;HPM_P1;HPM_P2
2021/03/29 04:46:37;;;;;;;5.07;1.95;;;;;;;;;;6240834;22;884204;-82
2021/03/29 04:49:02;;;;;;;4.50;1.80;;;;;;;;;;6312944;22;20007;-82
2021/03/29 04:51:28;;;;;;;5.22;2.05;;;;;;;;;;6283722;22;19995;-82
2021/03/29 04:53:53;;;;;;;5.65;1.83;;;;;;;;;;6284019;22;20090;-83
2021/03/29 04:56:19;;;;;;;4.35;1.85;;;;;;;;;;6269758;22;20094;-82
2021/03/29 05:01:13;;;;;;;8.90;3.00;;;;;;;;;;6250229;23;20011;-83
2021/03/29 05:05:57;;;;;;;7.53;1.73;;;;;;;;;;5100072;28;20352;-83
2021/03/29 05:08:23;;;;;;;5.80;2.15;;;;;;;;;;5060097;28;20412;-80
2021/03/29 05:10:49;;;;;;;4.40;2.22;;;;;;;;;;5057355;28;20064;-81
2021/03/29 05:13:15;;;;;;;5.15;1.90;;;;;;;;;;5052053;28;20064;-80
2021/03/29 05:15:40;;;;;;;7.82;2.20;;;;;;;;;;5054062;28;20830;-80
2021/03/29 05:18:06;;;;;;;7.82;2.30;;;;;;;;;;5053255;28;20052;-80
2021/03/29 05:20:32;;;;;;;7.80;2.78;;;;;;;;;;5053926;28;20108;-80
2021/03/29 05:22:57;;;;;;;9.38;2.47;;;;;;;;;;5054217;28;20021;-80
2021/03/29 05:25:23;;;;;;;7.22;1.70;;;;;;;;;;5053610;28;20045;-81
2021/03/29 05:30:15;;;;;;;4.90;2.13;;;;;;;;;;5089602;27;20848;-80
2021/03/29 05:32:41;;;;;;;4.65;2.03;;;;;;;;;;5075361;28;20097;-81
2021/03/29 05:35:07;;;;;;;5.18;2.05;;;;;;;;;;5078219;28;20021;-81
2021/03/29 05:38:38;;;;;;;5.63;2.40;;;;;;;;;;5073029;28;20018;-81
2021/03/29 05:44:16;;;;;;;5.85;1.73;;;;;;;;;;5080973;28;20032;-81
2021/03/29 05:47:00;;;;;;;5.88;1.83;;;;;;;;;;5079569;28;20043;-81
2021/03/29 05:49:26;;;;;;;4.80;1.90;;;;;;;;;;5081741;28;20027;-81
2021/03/29 05:51:52;;;;;;;4.75;1.75;;;;;;;;;;5068503;28;20426;-81
2021/03/29 05:54:18;;;;;;;5.97;2.03;;;;;;;;;;5069767;28;20036;-81
2021/03/29 05:56:44;;;;;;;6.70;1.95;;;;;;;;;;5072724;28;20492;-80
2021/03/29 05:59:12;;;;;;;4.43;2.30;;;;;;;;;;5068920;28;20116;-82
2021/03/29 06:01:41;;;;;;;10.85;6.03;;;;;;;;;;5071284;28;20029;-84
2021/03/29 06:04:06;;;;;;;6.38;2.97;;;;;;;;;;5076224;28;20038;-84
2021/03/29 07:11:00;;;;;;;6.32;3.30;;;;;;;;;;6229345;23;20395;-81
2021/03/29 07:15:45;;;;;;;8.38;3.30;;;;;;;;;;5126901;27;20356;-84
2021/03/29 07:18:12;;;;;;;6.18;3.15;;;;;;;;;;5112403;28;20106;-82
2021/03/29 07:20:38;;;;;;;7.53;2.60;;;;;;;;;;5096173;28;20024;-83
2021/03/29 07:23:03;;;;;;;5.10;2.63;;;;;;;;;;5110037;27;20099;-83
2021/03/29 07:25:31;;;;;;;5.57;2.70;;;;;;;;;;5105573;28;20129;-82
2021/03/29 07:27:58;;;;;;;5.82;2.60;;;;;;;;;;5104973;28;20038;-83
2021/03/29 07:30:44;;;;;;;4.68;2.28;;;;;;;;;;5102470;28;20048;-83
2021/03/29 07:33:10;;;;;;;7.20;2.67;;;;;;;;;;5108574;28;20026;-83
2021/03/29 07:35:49;;;;;;;9.90;2.72;;;;;;;;;;5104688;28;20024;-83
2021/03/29 07:38:16;;;;;;;6.80;3.05;;;;;;;;;;5110863;27;20031;-83
2021/03/29 07:40:42;;;;;;;8.23;2.53;;;;;;;;;;5122150;28;20032;-83
2021/03/29 07:43:13;;;;;;;6.15;2.95;;;;;;;;;;5109292;28;20060;-84
2021/03/29 07:45:46;;;;;;;9.23;3.67;;;;;;;;;;5116627;28;20027;-83
2021/03/29 07:48:15;;;;;;;6.05;2.80;;;;;;;;;;5115758;28;20030;-83
2021/03/29 07:50:41;;;;;;;7.82;3.40;;;;;;;;;;5114741;28;20036;-83
2021/03/29 07:53:17;;;;;;;8.00;4.13;;;;;;;;;;5109548;28;20028;-84
2021/03/29 07:55:50;;;;;;;6.07;3.08;;;;;;;;;;5114850;28;20084;-83
2021/03/29 07:58:16;;;;;;;8.60;3.42;;;;;;;;;;5114689;28;20020;-83
2021/03/29 08:00:43;;;;;;;17.83;4.50;;;;;;;;;;5117983;28;20067;-83
2021/03/29 08:03:12;;;;;;;7.82;3.35;;;;;;;;;;5105575;28;20026;-83
2021/03/29 08:05:42;;;;;;;8.50;2.90;;;;;;;;;;5119368;28;20027;-83
2021/03/29 08:08:26;;;;;;;8.60;2.97;;;;;;;;;;5108043;27;20559;-83
2021/03/29 08:10:55;;;;;;;7.30;2.97;;;;;;;;;;5108001;28;20558;-84
2021/03/29 08:13:48;;;;;;;5.53;2.97;;;;;;;;;;5112124;28;20038;-84
2021/03/29 08:16:15;;;;;;;6.13;2.45;;;;;;;;;;5115452;28;20034;-84
2021/03/29 08:18:59;;;;;;;7.47;3.08;;;;;;;;;;5109553;28;20507;-84
2021/03/29 08:21:45;;;;;;;6.90;2.58;;;;;;;;;;5107206;28;20054;-82
2021/03/29 08:24:24;;;;;;;6.63;2.45;;;;;;;;;;5106820;28;20028;-82
2021/03/29 08:26:51;;;;;;;6.35;2.30;;;;;;;;;;5101165;28;20375;-82
2021/03/29 08:29:17;;;;;;;7.43;3.00;;;;;;;;;;5092657;28;20484;-82
2021/03/29 08:32:02;;;;;;;5.95;2.75;;;;;;;;;;5096764;28;20032;-82
2021/03/29 08:34:28;;;;;;;11.95;3.03;;;;;;;;;;5099724;28;20059;-82
2021/03/29 08:36:54;;;;;;;7.32;2.60;;;;;;;;;;5099941;28;20032;-82
2021/03/29 08:39:21;;;;;;;9.15;2.78;;;;;;;;;;5110495;28;20026;-83
2021/03/29 08:41:49;;;;;;;5.78;2.22;;;;;;;;;;5104876;28;20031;-82
2021/03/29 08:44:15;;;;;;;5.43;2.15;;;;;;;;;;5112317;28;20027;-82
2021/03/29 08:46:44;;;;;;;7.78;2.75;;;;;;;;;;5106648;28;20020;-82
2021/03/29 08:49:10;;;;;;;6.00;2.15;;;;;;;;;;5103992;28;20023;-82
2021/03/29 08:54:06;;;;;;;3.92;1.73;;;;;;;;;;5116452;27;20369;-81
2021/03/29 08:56:39;;;;;;;7.75;2.28;;;;;;;;;;5105678;28;20403;-82
2021/03/29 08:59:05;;;;;;;7.22;2.70;;;;;;;;;;5102199;28;20085;-82
2021/03/29 09:01:31;;;;;;;6.72;2.15;;;;;;;;;;5114469;28;20440;-81
2021/03/29 09:04:03;;;;;;;8.38;2.80;;;;;;;;;;5102344;28;20030;-83
2021/03/29 09:06:31;;;;;;;6.70;2.30;;;;;;;;;;5104333;28;20016;-83
2021/03/29 09:08:57;;;;;;;6.30;1.83;;;;;;;;;;5101617;28;20016;-84
2021/03/29 09:11:23;;;;;;;6.05;2.13;;;;;;;;;;5089246;28;20024;-84
2021/03/29 09:13:53;;;;;;;6.63;3.13;;;;;;;;;;5089414;28;20016;-84
2021/03/29 09:16:22;;;;;;;9.40;2.55;;;;;;;;;;5107230;28;20086;-84
2021/03/29 09:31:33;;;;;;;5.78;2.05;;;;;;;;;;5142626;27;20846;-83
2021/03/29 09:33:59;;;;;;;5.03;1.50;;;;;;;;;;5125601;28;20552;-85
2021/03/29 09:36:24;;;;;;;4.68;1.65;;;;;;;;;;5127928;28;20040;-85
2021/03/29 09:38:56;;;;;;;8.10;2.45;;;;;;;;;;5128351;28;20077;-85
2021/03/29 09:41:23;;;;;;;6.82;2.03;;;;;;;;;;5119185;28;20023;-85
2021/03/29 09:43:50;;;;;;;7.53;1.80;;;;;;;;;;5115069;27;20039;-86
2021/03/29 09:46:51;;;;;;;5.22;1.88;;;;;;;;;;5121759;27;20039;-85
2021/03/29 09:49:22;;;;;;;5.17;1.87;;;;;;;;;;5113662;28;20516;-86
2021/03/29 09:52:02;;;;;;;6.40;2.42;;;;;;;;;;5125940;28;20413;-86
2021/03/29 09:54:38;;;;;;;4.05;2.17;;;;;;;;;;5116728;28;20023;-85
2021/03/29 09:57:14;;;;;;;4.07;1.85;;;;;;;;;;5112503;28;20040;-85
2021/03/29 09:59:41;;;;;;;5.22;1.77;;;;;;;;;;5121962;28;20453;-85
2021/03/29 10:02:15;;;;;;;4.47;1.40;;;;;;;;;;5117737;27;20027;-85
2021/03/29 10:04:44;;;;;;;3.88;1.55;;;;;;;;;;5113114;28;20020;-86
2021/03/29 10:07:17;;;;;;;5.60;1.50;;;;;;;;;;5119654;27;20020;-85
2021/03/29 10:09:46;;;;;;;6.03;1.92;;;;;;;;;;5122742;27;20073;-85
2021/03/29 10:12:22;;;;;;;5.82;1.70;;;;;;;;;;5126010;27;20029;-85
2021/03/29 10:14:48;;;;;;;5.68;1.58;;;;;;;;;;5122860;28;20054;-85
2021/03/29 10:17:20;;;;;;;4.65;1.73;;;;;;;;;;5122917;27;20469;-85
2021/03/29 10:22:13;;;;;;;4.93;1.58;;;;;;;;;;5106056;27;20379;-83
2021/03/29 10:24:56;;;;;;;7.13;2.28;;;;;;;;;;5085861;28;20399;-84
2021/03/29 10:27:22;;;;;;;4.60;1.48;;;;;;;;;;5105150;28;20028;-84
2021/03/29 10:29:48;;;;;;;3.20;1.65;;;;;;;;;;5069645;28;20539;-84
2021/03/29 10:32:15;;;;;;;8.32;2.38;;;;;;;;;;5067991;28;20093;-81
2021/03/29 10:34:49;;;;;;;4.18;1.40;;;;;;;;;;5073177;28;20071;-82
2021/03/29 10:37:25;;;;;;;4.82;1.60;;;;;;;;;;5055292;28;20041;-83
2021/03/29 10:39:52;;;;;;;8.35;2.15;;;;;;;;;;5065316;28;20583;-83
2021/03/29 10:42:24;;;;;;;4.40;1.45;;;;;;;;;;5067193;28;20469;-82
2021/03/29 10:44:53;;;;;;;5.15;1.42;;;;;;;;;;5066605;28;20056;-82
2021/03/29 10:47:22;;;;;;;5.88;1.88;;;;;;;;;;5063145;28;20021;-83
2021/03/29 10:49:54;;;;;;;4.15;1.30;;;;;;;;;;5065845;28;20541;-82
2021/03/29 10:52:21;;;;;;;3.38;1.02;;;;;;;;;;5065332;28;20048;-82
2021/03/29 10:54:47;;;;;;;5.32;1.38;;;;;;;;;;5068718;28;20047;-83
2021/03/29 10:57:13;;;;;;;6.28;1.80;;;;;;;;;;5048687;28;20477;-83
2021/03/29 10:59:38;;;;;;;4.95;1.55;;;;;;;;;;5059290;28;20017;-83
2021/03/29 11:02:04;;;;;;;5.13;2.00;;;;;;;;;;5032772;23;20033;-78
2021/03/29 11:04:30;;;;;;;3.63;1.77;;;;;;;;;;5030856;28;20037;-78
2021/03/29 11:06:56;;;;;;;9.30;2.33;;;;;;;;;;5015152;28;20022;-78
2021/03/29 11:09:22;;;;;;;5.80;1.65;;;;;;;;;;5033121;28;20021;-79
2021/03/29 11:11:47;;;;;;;3.10;1.08;;;;;;;;;;5045221;28;20064;-79
2021/03/29 11:14:13;;;;;;;6.78;1.27;;;;;;;;;;5052285;28;20021;-79
2021/03/29 11:16:39;;;;;;;8.10;1.45;;;;;;;;;;5052835;28;20023;-78
2021/03/29 11:19:05;;;;;;;4.43;1.67;;;;;;;;;;5051276;28;20582;-79
2021/03/29 11:21:33;;;;;;;5.90;1.65;;;;;;;;;;5052346;28;20422;-78
2021/03/29 11:23:58;;;;;;;3.97;1.25;;;;;;;;;;5049262;28;20489;-80
2021/03/29 11:26:24;;;;;;;4.47;1.77;;;;;;;;;;5050098;28;20033;-79
2021/03/29 11:28:50;;;;;;;3.75;1.40;;;;;;;;;;5051179;28;20128;-79
2021/03/29 11:31:16;;;;;;;4.82;1.35;;;;;;;;;;5049224;28;20128;-79
2021/03/29 11:33:41;;;;;;;3.60;1.33;;;;;;;;;;5036732;28;20080;-78
2021/03/29 11:36:07;;;;;;;4.35;2.13;;;;;;;;;;5019123;28;20520;-78
2021/03/29 11:38:37;;;;;;;4.55;1.45;;;;;;;;;;5036304;28;20033;-77
2021/03/29 11:41:03;;;;;;;4.63;1.73;;;;;;;;;;5018554;28;20025;-79
2021/03/29 11:43:28;;;;;;;6.03;1.77;;;;;;;;;;5036516;28;20040;-79
2021/03/29 11:45:54;;;;;;;4.03;1.70;;;;;;;;;;5036220;28;20799;-77
2021/03/29 11:48:19;;;;;;;4.38;1.45;;;;;;;;;;5034169;28;20100;-78
2021/03/29 11:50:45;;;;;;;4.50;1.50;;;;;;;;;;5034690;28;20017;-76
2021/03/29 11:53:11;;;;;;;4.78;1.73;;;;;;;;;;5035659;28;20117;-77
2021/03/29 11:55:36;;;;;;;5.50;1.30;;;;;;;;;;5032299;28;20029;-77
2021/03/29 11:58:05;;;;;;;5.35;1.55;;;;;;;;;;5034119;28;20036;-77
2021/03/29 12:00:36;;;;;;;5.15;1.85;;;;;;;;;;5034235;28;20079;-78
2021/03/29 12:05:55;;;;;;;5.60;1.40;;;;;;;;;;5034019;28;19919;-79
2021/03/29 12:13:33;;;;;;;4.05;1.40;;;;;;;;;;5034250;28;21089;-78
2021/03/29 12:16:00;;;;;;;6.82;1.50;;;;;;;;;;5038371;28;20017;-82
2021/03/29 12:18:48;;;;;;;6.80;2.38;;;;;;;;;;5035937;28;20029;-81
2021/03/29 12:21:16;;;;;;;6.13;1.80;;;;;;;;;;5033085;28;20024;-77
2021/03/29 12:23:44;;;;;;;4.25;1.52;;;;;;;;;;5037090;28;20132;-80
2021/03/29 12:26:11;;;;;;;3.78;1.50;;;;;;;;;;5016008;28;20105;-80
2021/03/29 12:28:37;;;;;;;4.90;1.92;;;;;;;;;;5017378;28;20033;-78
2021/03/29 12:31:03;;;;;;;3.58;1.55;;;;;;;;;;5034742;28;20030;-78
2021/03/29 12:33:30;;;;;;;4.82;1.63;;;;;;;;;;5018754;28;20017;-79
2021/03/29 12:35:57;;;;;;;4.15;1.40;;;;;;;;;;5037195;28;20104;-80
2021/03/29 12:38:24;;;;;;;5.20;1.77;;;;;;;;;;5037264;28;20034;-79
2021/03/29 12:40:52;;;;;;;4.18;1.52;;;;;;;;;;5037522;28;20441;-80
2021/03/29 12:43:31;;;;;;;5.55;1.30;;;;;;;;;;5036618;28;20466;-79
2021/03/29 12:45:58;;;;;;;3.70;1.27;;;;;;;;;;5029793;28;20025;-79
2021/03/29 12:48:23;;;;;;;4.32;1.50;;;;;;;;;;5036558;28;20389;-77
2021/03/29 12:50:49;;;;;;;6.28;1.73;;;;;;;;;;5017539;28;20033;-78
2021/03/29 12:53:15;;;;;;;3.63;1.40;;;;;;;;;;5036663;28;20436;-80
2021/03/29 12:55:40;;;;;;;4.32;1.58;;;;;;;;;;5037232;28;20091;-80
2021/03/29 12:58:06;;;;;;;6.45;1.63;;;;;;;;;;5013009;28;20112;-80
2021/03/29 13:00:32;;;;;;;4.80;1.60;;;;;;;;;;5035287;28;20033;-77
2021/03/29 13:03:00;;;;;;;5.55;1.58;;;;;;;;;;5035110;28;20060;-79
2021/03/29 13:05:38;;;;;;;5.70;1.73;;;;;;;;;;5036028;28;20104;-81
2021/03/29 13:08:15;;;;;;;3.88;1.60;;;;;;;;;;5036451;28;20047;-81
2021/03/29 13:11:00;;;;;;;4.40;1.55;;;;;;;;;;5038456;28;20383;-80
2021/03/29 13:13:26;;;;;;;3.65;1.50;;;;;;;;;;5037862;28;20029;-81
2021/03/29 13:15:51;;;;;;;5.15;3.25;;;;;;;;;;5020213;28;20024;-83
2021/03/29 13:18:18;;;;;;;4.18;1.38;;;;;;;;;;5036241;28;20018;-82
2021/03/29 13:20:44;;;;;;;4.30;1.38;;;;;;;;;;5032565;28;20033;-79
2021/03/29 13:23:10;;;;;;;3.75;1.60;;;;;;;;;;5032920;28;20181;-78
2021/03/29 13:25:35;;;;;;;3.60;1.40;;;;;;;;;;5015166;28;20533;-81
2021/03/29 13:28:03;;;;;;;3.45;1.23;;;;;;;;;;5031040;28;20470;-80
2021/03/29 13:30:30;;;;;;;3.97;1.50;;;;;;;;;;5032849;28;20022;-81
2021/03/29 13:32:56;;;;;;;3.60;1.30;;;;;;;;;;5032899;28;20523;-80
2021/03/29 13:35:23;;;;;;;4.03;1.52;;;;;;;;;;5033133;28;20080;-82
2021/03/29 13:37:49;;;;;;;3.60;1.58;;;;;;;;;;5033451;28;20056;-82
2021/03/29 13:40:15;;;;;;;6.15;2.05;;;;;;;;;;5032389;28;20515;-81
2021/03/29 13:42:44;;;;;;;3.40;1.70;;;;;;;;;;5032557;28;20025;-82
2021/03/29 13:45:11;;;;;;;3.33;1.33;;;;;;;;;;5014933;28;20044;-83
2021/03/29 13:47:37;;;;;;;4.53;1.42;;;;;;;;;;5032955;28;20052;-81
2021/03/29 13:50:04;;;;;;;5.18;2.00;;;;;;;;;;5012815;28;20033;-81
2021/03/29 13:52:33;;;;;;;2.60;1.20;;;;;;;;;;5032082;28;20017;-82
2021/03/29 13:54:59;;;;;;;4.18;1.73;;;;;;;;;;5031961;28;20091;-80
2021/03/29 13:57:25;;;;;;;5.20;1.85;;;;;;;;;;5032633;28;20423;-79
2021/03/29 13:59:51;;;;;;;4.70;1.65;;;;;;;;;;5032158;28;20037;-80
2021/03/29 14:02:16;;;;;;;5.65;1.60;;;;;;;;;;5032790;28;20033;-82
2021/03/29 14:04:43;;;;;;;5.05;2.88;;;;;;;;;;5032828;28;20389;-80
2021/03/29 14:07:09;;;;;;;3.15;1.40;;;;;;;;;;5032822;28;20035;-82
2021/03/29 14:09:35;;;;;;;5.32;2.00;;;;;;;;;;5032327;28;20072;-82
2021/03/29 14:12:01;;;;;;;4.57;1.67;;;;;;;;;;5031238;28;20482;-82
2021/03/29 14:14:27;;;;;;;3.28;1.30;;;;;;;;;;5033329;28;20536;-81
2021/03/29 14:16:52;;;;;;;4.15;1.38;;;;;;;;;;5015010;28;20025;-80
2021/03/29 14:19:20;;;;;;;3.45;1.40;;;;;;;;;;5016377;28;20028;-78
2021/03/29 14:21:46;;;;;;;2.78;1.25;;;;;;;;;;5034007;28;20048;-79
2021/03/29 14:24:12;;;;;;;2.60;1.20;;;;;;;;;;5033786;28;20036;-79
2021/03/29 14:26:38;;;;;;;4.22;1.40;;;;;;;;;;5033717;28;20018;-80
2021/03/29 14:29:04;;;;;;;3.53;1.10;;;;;;;;;;5034670;28;20017;-80
2021/03/29 14:31:30;;;;;;;4.32;1.30;;;;;;;;;;5033787;28;20068;-80
2021/03/29 14:33:55;;;;;;;3.85;1.35;;;;;;;;;;5033548;28;19913;-80
2021/03/29 14:36:28;;;;;;;4.45;1.50;;;;;;;;;;5033355;28;20120;-80
2021/03/29 14:46:30;;;;;;;4.90;1.70;;;;;;;;;;5033920;28;20060;-80
2021/03/29 14:48:55;;;;;;;5.20;1.33;;;;;;;;;;5033684;28;20029;-79
2021/03/29 14:51:21;;;;;;;6.10;1.13;;;;;;;;;;5034197;28;20036;-79
2021/03/29 14:53:47;;;;;;;5.40;1.13;;;;;;;;;;5033146;28;20569;-78
2021/03/29 14:56:12;;;;;;;5.03;1.48;;;;;;;;;;5033619;28;20044;-78
2021/03/29 14:58:38;;;;;;;17.60;11.40;;;;;;;;;;5015808;28;20029;-79
2021/03/29 15:01:04;;;;;;;7.10;2.60;;;;;;;;;;5033075;28;20029;-79
2021/03/29 15:03:30;;;;;;;3.85;1.50;;;;;;;;;;5033663;28;20378;-80
2021/03/29 15:08:21;;;;;;;3.40;2.05;;;;;;;;;;5035730;28;20029;-77
2021/03/29 15:10:47;;;;;;;2.55;1.30;;;;;;;;;;5019212;28;20024;-78
2021/03/29 15:13:12;;;;;;;5.85;1.35;;;;;;;;;;5036527;28;20021;-80
2021/03/29 15:15:38;;;;;;;3.70;1.27;;;;;;;;;;5036895;28;20026;-79
2021/03/29 15:18:04;;;;;;;3.53;1.50;;;;;;;;;;5038095;28;20084;-78
2021/03/29 15:20:30;;;;;;;3.22;1.25;;;;;;;;;;5036937;28;20030;-78
2021/03/29 15:22:55;;;;;;;4.45;1.50;;;;;;;;;;5028506;28;20366;-78
2021/03/29 15:25:21;;;;;;;2.80;1.38;;;;;;;;;;5037595;28;20060;-79
2021/03/29 15:27:47;;;;;;;3.08;1.20;;;;;;;;;;5036895;28;20105;-79
2021/03/29 15:30:13;;;;;;;3.17;1.27;;;;;;;;;;5036222;28;20040;-78
2021/03/29 15:32:39;;;;;;;4.90;1.50;;;;;;;;;;5037106;28;20059;-79
2021/03/29 15:35:05;;;;;;;5.88;2.45;;;;;;;;;;5036860;28;20030;-79
2021/03/29 15:37:31;;;;;;;4.75;1.73;;;;;;;;;;5019555;28;20029;-80
2021/03/29 15:39:56;;;;;;;3.92;1.20;;;;;;;;;;5036789;28;20024;-80
2021/03/29 15:42:22;;;;;;;3.45;1.42;;;;;;;;;;5036571;28;20013;-78
2021/03/29 15:44:48;;;;;;;3.30;1.45;;;;;;;;;;5018865;28;20091;-79
2021/03/29 15:47:16;;;;;;;12.90;5.75;;;;;;;;;;5036710;28;20523;-80
2021/03/29 15:49:42;;;;;;;5.70;2.80;;;;;;;;;;5036786;28;20017;-80
2021/03/29 15:52:07;;;;;;;5.25;2.85;;;;;;;;;;5036576;28;20439;-80
2021/03/29 15:54:33;;;;;;;4.63;2.25;;;;;;;;;;5017659;28;20021;-79
2021/03/29 15:57:00;;;;;;;2.95;1.38;;;;;;;;;;5036348;28;20064;-80
2021/03/29 15:59:28;;;;;;;3.05;1.40;;;;;;;;;;5036450;28;20017;-79
2021/03/29 16:01:56;;;;;;;2.17;1.00;;;;;;;;;;5037040;28;20076;-79
2021/03/29 16:04:29;;;;;;;3.03;1.42;;;;;;;;;;5030236;28;20033;-80
2021/03/29 16:06:54;;;;;;;4.28;1.20;;;;;;;;;;5028571;28;20025;-80
2021/03/29 16:09:20;;;;;;;2.67;1.10;;;;;;;;;;5030939;28;20014;-80
2021/03/29 16:11:46;;;;;;;4.85;1.75;;;;;;;;;;5010140;28;20028;-80
2021/03/29 16:14:12;;;;;;;5.55;1.50;;;;;;;;;;5036667;28;20033;-80
2021/03/29 16:16:38;;;;;;;2.25;1.10;;;;;;;;;;5036483;28;20025;-80
2021/03/29 16:19:03;;;;;;;7.07;1.45;;;;;;;;;;5036283;28;20033;-80
2021/03/29 16:21:29;;;;;;;5.65;1.35;;;;;;;;;;5036243;28;20021;-77
2021/03/29 16:23:55;;;;;;;3.17;1.25;;;;;;;;;;5033653;28;20075;-79
2021/03/29 16:26:25;;;;;;;3.72;1.10;;;;;;;;;;5035805;28;20064;-78
2021/03/29 16:28:51;;;;;;;3.53;0.98;;;;;;;;;;5037246;28;20441;-79
2021/03/29 16:31:17;;;;;;;2.78;1.00;;;;;;;;;;5036581;28;20048;-79
2021/03/29 16:33:42;;;;;;;3.83;1.25;;;;;;;;;;5037620;28;20033;-79
2021/03/29 16:36:08;;;;;;;2.75;1.20;;;;;;;;;;5037576;28;20013;-78
2021/03/29 16:38:34;;;;;;;3.17;1.10;;;;;;;;;;5036895;28;20052;-78
2021/03/29 16:41:00;;;;;;;4.35;1.38;;;;;;;;;;5031267;28;20025;-77
2021/03/29 16:43:26;;;;;;;2.67;1.23;;;;;;;;;;5033175;28;20035;-77
2021/03/29 16:45:52;;;;;;;6.82;1.65;;;;;;;;;;5034381;28;20540;-77
2021/03/29 16:50:36;;;;;;;5.18;1.50;;;;;;;;;;5099821;28;20393;-78
2021/03/29 16:53:02;;;;;;;3.33;1.52;;;;;;;;;;5102378;28;20447;-79
2021/03/29 16:55:27;;;;;;;4.38;1.98;;;;;;;;;;5099974;28;20033;-77
2021/03/29 16:57:53;;;;;;;3.35;1.42;;;;;;;;;;5103541;28;20034;-80
2021/03/29 17:02:44;;;;;;;3.22;1.48;;;;;;;;;;5080229;22;20065;-79
2021/03/29 17:05:10;;;;;;;7.50;1.50;;;;;;;;;;5062457;28;20032;-80
2021/03/29 17:07:36;;;;;;;6.35;1.95;;;;;;;;;;5039458;28;20047;-79
2021/03/29 17:10:01;;;;;;;4.55;1.80;;;;;;;;;;5039212;28;20489;-79
2021/03/29 17:12:27;;;;;;;3.42;1.20;;;;;;;;;;5074884;28;20025;-80
2021/03/29 17:14:53;;;;;;;3.50;1.63;;;;;;;;;;5057372;28;20021;-79
2021/03/29 17:17:19;;;;;;;3.65;1.20;;;;;;;;;;5058725;28;20052;-79
2021/03/29 17:19:45;;;;;;;2.70;1.10;;;;;;;;;;5068937;28;20055;-79
2021/03/29 17:22:11;;;;;;;5.43;3.30;;;;;;;;;;5076266;28;20096;-79
2021/03/29 17:24:36;;;;;;;5.80;3.35;;;;;;;;;;5077995;28;20103;-79
2021/03/29 17:27:02;;;;;;;4.95;2.95;;;;;;;;;;5061950;28;20031;-79
2021/03/29 17:29:40;;;;;;;5.78;3.35;;;;;;;;;;5057316;28;20056;-79
2021/03/29 17:32:06;;;;;;;3.67;1.80;;;;;;;;;;5074839;28;20021;-79
2021/03/29 17:34:32;;;;;;;150.40;96.57;;;;;;;;;;5076596;28;20025;-79
2021/03/29 17:36:57;;;;;;;90.20;70.07;;;;;;;;;;5080227;28;20021;-79
2021/03/29 17:39:23;;;;;;;55.03;42.85;;;;;;;;;;5080784;28;20104;-79
2021/03/29 17:41:48;;;;;;;48.03;43.22;;;;;;;;;;5078942;28;20129;-79
2021/03/29 17:44:14;;;;;;;20.38;18.40;;;;;;;;;;5081306;28;19991;-79
2021/03/29 17:46:40;;;;;;;17.08;15.35;;;;;;;;;;5059349;28;20032;-79
2021/03/29 17:49:05;;;;;;;10.27;7.10;;;;;;;;;;5069306;28;20025;-80
2021/03/29 17:51:31;;;;;;;5.13;4.38;;;;;;;;;;5073690;28;20116;-79
2021/03/29 17:53:57;;;;;;;4.65;2.80;;;;;;;;;;5078923;28;20115;-79
2021/03/29 17:56:22;;;;;;;4.30;1.70;;;;;;;;;;5079528;28;20115;-79
2021/03/29 17:58:48;;;;;;;3.75;2.70;;;;;;;;;;5071471;28;20135;-79
2021/03/29 18:01:14;;;;;;;5.82;2.88;;;;;;;;;;5051261;28;20147;-79
2021/03/29 18:03:39;;;;;;;3.50;2.30;;;;;;;;;;5045802;28;20081;-79
2021/03/29 18:06:05;;;;;;;3.75;1.88;;;;;;;;;;5066278;28;20460;-79
2021/03/29 18:08:31;;;;;;;4.80;1.20;;;;;;;;;;5064171;28;20048;-79
2021/03/29 18:10:57;;;;;;;4.22;1.60;;;;;;;;;;5041565;28;20031;-79
2021/03/29 18:13:23;;;;;;;7.00;2.28;;;;;;;;;;5065613;28;20046;-79
2021/03/29 18:15:49;;;;;;;3.67;1.17;;;;;;;;;;5066019;28;20024;-79
2021/03/29 18:18:14;;;;;;;3.13;1.38;;;;;;;;;;5065798;28;20078;-79
2021/03/29 18:20:40;;;;;;;4.38;1.73;;;;;;;;;;5046216;28;20032;-79
2021/03/29 18:23:06;;;;;;;3.35;1.30;;;;;;;;;;5066269;28;20028;-79
2021/03/29 18:25:31;;;;;;;6.75;2.05;;;;;;;;;;5063731;28;20028;-79
2021/03/29 18:27:58;;;;;;;3.00;1.45;;;;;;;;;;5059531;28;20391;-79
2021/03/29 18:30:24;;;;;;;5.50;1.30;;;;;;;;;;5047049;28;20099;-79
2021/03/29 18:32:51;;;;;;;4.18;1.45;;;;;;;;;;5062805;28;20017;-79
2021/03/29 18:35:17;;;;;;;5.60;1.73;;;;;;;;;;5060018;28;20013;-79
2021/03/29 18:37:42;;;;;;;2.78;1.65;;;;;;;;;;5071827;28;20038;-79
2021/03/29 18:40:08;;;;;;;3.97;1.90;;;;;;;;;;5044148;28;20115;-79
2021/03/29 18:42:34;;;;;;;4.82;1.60;;;;;;;;;;5072327;28;20033;-78
2021/03/29 18:45:00;;;;;;;3.80;1.77;;;;;;;;;;5069216;28;20066;-79
2021/03/29 18:47:26;;;;;;;3.88;2.00;;;;;;;;;;5070360;28;20551;-79
2021/03/29 18:49:51;;;;;;;4.65;2.05;;;;;;;;;;5062615;28;20350;-79
2021/03/29 18:52:17;;;;;;;5.15;2.38;;;;;;;;;;5067295;28;20472;-79
2021/03/29 18:54:43;;;;;;;3.45;2.00;;;;;;;;;;5045262;28;20025;-79
2021/03/29 18:57:09;;;;;;;5.45;2.42;;;;;;;;;;5068493;28;20418;-79
2021/03/29 18:59:35;;;;;;;3.25;1.75;;;;;;;;;;5061370;28;20099;-79
2021/03/29 19:02:01;;;;;;;8.45;1.77;;;;;;;;;;5048245;28;20029;-80
2021/03/29 19:04:27;;;;;;;3.38;1.60;;;;;;;;;;5070678;28;20024;-79
2021/03/29 19:06:54;;;;;;;4.80;1.40;;;;;;;;;;5068079;28;20031;-79
2021/03/29 19:09:20;;;;;;;8.48;1.50;;;;;;;;;;5050142;28;20044;-79
2021/03/29 19:11:53;;;;;;;6.20;1.75;;;;;;;;;;5068007;28;20037;-78
2021/03/29 19:14:19;;;;;;;2.58;1.30;;;;;;;;;;5065761;28;20070;-81
2021/03/29 19:16:45;;;;;;;3.20;1.45;;;;;;;;;;5051554;28;20432;-81
2021/03/29 19:19:11;;;;;;;4.00;1.52;;;;;;;;;;5044601;28;20037;-81
2021/03/29 19:21:48;;;;;;;3.65;1.65;;;;;;;;;;5044474;28;20515;-81
2021/03/29 19:24:14;;;;;;;3.80;1.77;;;;;;;;;;5064684;28;20033;-81
2021/03/29 19:26:47;;;;;;;4.53;2.60;;;;;;;;;;5065160;28;20033;-81
2021/03/29 19:29:13;;;;;;;5.18;2.83;;;;;;;;;;5064710;28;20032;-81
2021/03/29 19:31:38;;;;;;;5.35;2.42;;;;;;;;;;5058696;28;20120;-81
2021/03/29 19:34:04;;;;;;;4.15;2.33;;;;;;;;;;5048124;28;20028;-81
2021/03/29 19:36:30;;;;;;;3.70;2.25;;;;;;;;;;5063773;28;20024;-81
2021/03/29 19:38:56;;;;;;;9.45;2.20;;;;;;;;;;5059462;28;20476;-81
2021/03/29 19:41:22;;;;;;;3.97;1.65;;;;;;;;;;5062374;28;20025;-81
2021/03/29 19:43:47;;;;;;;3.40;1.50;;;;;;;;;;5063105;28;20119;-81
2021/03/29 19:46:13;;;;;;;3.95;1.77;;;;;;;;;;5064687;28;20103;-81
2021/03/29 19:48:39;;;;;;;5.43;1.85;;;;;;;;;;5041572;28;20024;-81
2021/03/29 19:51:05;;;;;;;3.88;1.48;;;;;;;;;;5060933;28;20029;-81
2021/03/29 19:53:30;;;;;;;3.97;2.35;;;;;;;;;;5059741;28;20423;-81
2021/03/29 19:55:56;;;;;;;5.13;1.65;;;;;;;;;;5049223;28;20016;-81
2021/03/29 19:58:22;;;;;;;4.10;2.00;;;;;;;;;;5041849;28;20024;-81
2021/03/29 20:00:55;;;;;;;3.42;1.70;;;;;;;;;;5062358;28;20028;-81
2021/03/29 20:03:29;;;;;;;4.65;1.98;;;;;;;;;;5046728;28;20423;-81
2021/03/29 20:05:59;;;;;;;6.22;1.95;;;;;;;;;;5061171;28;20099;-81
2021/03/29 20:08:27;;;;;;;4.90;2.03;;;;;;;;;;5059914;28;20028;-81
2021/03/29 20:10:53;;;;;;;4.85;2.05;;;;;;;;;;5059932;28;20031;-81
2021/03/29 20:13:18;;;;;;;3.75;2.13;;;;;;;;;;5060720;28;20029;-81
2021/03/29 20:15:44;;;;;;;9.05;1.98;;;;;;;;;;5058840;28;20021;-81
2021/03/29 20:18:12;;;;;;;4.63;2.30;;;;;;;;;;5060632;28;20020;-81
2021/03/29 20:20:38;;;;;;;5.50;2.00;;;;;;;;;;5062751;28;20079;-81
2021/03/29 20:23:04;;;;;;;5.28;2.00;;;;;;;;;;5045858;28;21479;-81
2021/03/29 20:25:31;;;;;;;3.58;1.75;;;;;;;;;;5059043;28;20543;-81
2021/03/29 20:27:56;;;;;;;5.43;1.88;;;;;;;;;;5045196;28;20039;-81
2021/03/29 20:30:22;;;;;;;3.47;1.83;;;;;;;;;;5062417;28;20460;-81
2021/03/29 20:32:48;;;;;;;4.13;2.17;;;;;;;;;;5061178;28;20064;-81
2021/03/29 20:35:14;;;;;;;4.13;1.88;;;;;;;;;;5065490;28;20112;-81
2021/03/29 20:37:42;;;;;;;9.15;1.92;;;;;;;;;;5066927;28;20123;-82
2021/03/29 20:40:09;;;;;;;3.42;1.88;;;;;;;;;;5044918;28;20036;-81
2021/03/29 20:42:35;;;;;;;4.38;2.97;;;;;;;;;;5063358;28;20024;-81
2021/03/29 20:45:00;;;;;;;4.60;1.80;;;;;;;;;;5064355;28;20035;-81
2021/03/29 20:47:26;;;;;;;4.25;1.80;;;;;;;;;;5050783;28;20482;-81
2021/03/29 20:49:52;;;;;;;3.95;1.73;;;;;;;;;;5063176;28;20053;-81
2021/03/29 20:52:18;;;;;;;3.58;1.50;;;;;;;;;;5066180;28;20020;-81
2021/03/29 20:54:44;;;;;;;5.25;2.03;;;;;;;;;;5049028;28;20029;-81
2021/03/29 20:57:10;;;;;;;4.43;1.80;;;;;;;;;;5039675;28;20112;-81
2021/03/29 20:59:35;;;;;;;6.40;1.50;;;;;;;;;;5063078;28;20076;-81
2021/03/29 21:02:02;;;;;;;4.35;1.73;;;;;;;;;;5065215;28;20129;-81
2021/03/29 21:04:28;;;;;;;3.33;1.60;;;;;;;;;;5059698;28;20056;-81
2021/03/29 21:06:53;;;;;;;3.08;1.58;;;;;;;;;;5049564;28;20115;-81
2021/03/29 21:09:21;;;;;;;4.60;1.70;;;;;;;;;;5061671;28;20035;-81
2021/03/29 21:11:46;;;;;;;4.28;1.58;;;;;;;;;;5063893;28;20411;-82
2021/03/29 21:14:12;;;;;;;2.63;1.33;;;;;;;;;;5036669;28;20041;-82
2021/03/29 21:16:38;;;;;;;3.63;1.50;;;;;;;;;;5047450;28;20028;-81
2021/03/29 21:19:04;;;;;;;3.83;1.70;;;;;;;;;;5045321;28;20021;-81
2021/03/29 21:21:30;;;;;;;3.08;1.58;;;;;;;;;;5066156;28;20032;-81
2021/03/29 21:23:56;;;;;;;3.58;1.60;;;;;;;;;;5065036;28;20016;-81
2021/03/29 21:28:40;;;;;;;4.07;1.50;;;;;;;;;;5107105;27;20386;-81
2021/03/29 21:31:05;;;;;;;3.42;1.80;;;;;;;;;;5107391;28;20035;-81